sensor_id;sensor_type;location;lat;lon;timestamp;P1;durP1;ratioP1;P2;durP2;ratioP2
41897;SDS011;27576;53.366;-1.498;2022-12-18T00:01:28;19.33;;;10.43;;
41897;SDS011;27576;53.366;-1.498;2022-12-18T00:03:58;13.67;;;9.60;;
41897;SDS011;27576;53.366;-1.498;2022-12-18T00:06:25;12.90;;;9.90;;
41897;SDS011;27576;53.366;-1.498;2022-12-18T00:08:52;12.70;;;10.40;;
41897;SDS011;27576;53.366;-1.498;2022-12-18T00:11:20;12.53;;;9.00;;
41897;SDS011;27576;53.366;-1.498;2022-12-18T00:13:47;14.97;;;10.27;;
41897;SDS011;27576;53.366;-1.498;2022-12-18T00:16:14;14.40;;;11.10;;
41897;SDS011;27576;53.366;-1.498;2022-12-18T00:18:43;16.90;;;11.83;;
41897;SDS011;27576;53.366;-1.498;2022-12-18T00:21:09;16.20;;;10.83;;
41897;SDS011;27576;53.366;-1.498;2022-12-18T00:23:37;17.27;;;12.47;;
41897;SDS011;27576;53.366;-1.498;2022-12-18T00:26:04;18.43;;;13.03;;
41897;SDS011;27576;53.366;-1.498;2022-12-18T00:28:31;23.13;;;13.53;;
41897;SDS011;27576;53.366;-1.498;2022-12-18T00:31:07;22.33;;;13.10;;
41897;SDS011;27576;53.366;-1.498;2022-12-18T00:33:36;18.87;;;13.17;;
41897;SDS011;27576;53.366;-1.498;2022-12-18T00:36:02;20.93;;;13.23;;
41897;SDS011;27576;53.366;-1.498;2022-12-18T00:38:33;15.10;;;11.80;;
41897;SDS011;27576;53.366;-1.498;2022-12-18T00:40:59;16.67;;;12.83;;
41897;SDS011;27576;53.366;-1.498;2022-12-18T00:43:25;16.73;;;12.07;;
41897;SDS011;27576;53.366;-1.498;2022-12-18T00:45:50;18.10;;;12.10;;
41897;SDS011;27576;53.366;-1.498;2022-12-18T00:48:15;20.13;;;13.40;;
41897;SDS011;27576;53.366;-1.498;2022-12-18T00:50:41;17.23;;;13.27;;
41897;SDS011;27576;53.366;-1.498;2022-12-18T00:53:06;18.13;;;11.97;;
41897;SDS011;27576;53.366;-1.498;2022-12-18T00:55:32;16.07;;;12.47;;
41897;SDS011;27576;53.366;-1.498;2022-12-18T00:57:57;15.93;;;12.07;;
41897;SDS011;27576;53.366;-1.498;2022-12-18T01:00:22;15.83;;;11.53;;
41897;SDS011;27576;53.366;-1.498;2022-12-18T01:02:48;13.17;;;10.23;;
41897;SDS011;27576;53.366;-1.498;2022-12-18T01:05:13;16.00;;;11.50;;
41897;SDS011;27576;53.366;-1.498;2022-12-18T01:07:39;19.00;;;12.83;;
41897;SDS011;27576;53.366;-1.498;2022-12-18T01:10:05;17.53;;;11.33;;
41897;SDS011;27576;53.366;-1.498;2022-12-18T01:12:32;15.17;;;12.10;;
41897;SDS011;27576;53.366;-1.498;2022-12-18T01:14:58;18.13;;;12.33;;
41897;SDS011;27576;53.366;-1.498;2022-12-18T01:17:23;16.47;;;12.77;;
41897;SDS011;27576;53.366;-1.498;2022-12-18T01:19:49;18.53;;;12.20;;
41897;SDS011;27576;53.366;-1.498;2022-12-18T01:22:14;19.20;;;13.13;;
41897;SDS011;27576;53.366;-1.498;2022-12-18T01:24:39;19.07;;;12.23;;
41897;SDS011;27576;53.366;-1.498;2022-12-18T01:27:05;18.17;;;12.63;;
41897;SDS011;27576;53.366;-1.498;2022-12-18T01:29:31;16.87;;;12.20;;
41897;SDS011;27576;53.366;-1.498;2022-12-18T01:31:56;17.90;;;12.53;;
41897;SDS011;27576;53.366;-1.498;2022-12-18T01:34:25;20.30;;;12.33;;
41897;SDS011;27576;53.366;-1.498;2022-12-18T01:36:50;17.17;;;12.23;;
41897;SDS011;27576;53.366;-1.498;2022-12-18T01:39:18;17.83;;;12.53;;
41897;SDS011;27576;53.366;-1.498;2022-12-18T01:41:44;20.43;;;14.17;;
41897;SDS011;27576;53.366;-1.498;2022-12-18T01:50:13;17.30;;;13.27;;
41897;SDS011;27576;53.366;-1.498;2022-12-18T01:52:55;19.27;;;12.73;;
41897;SDS011;27576;53.366;-1.498;2022-12-18T01:55:23;18.53;;;12.43;;
41897;SDS011;27576;53.366;-1.498;2022-12-18T01:57:52;18.80;;;12.77;;
41897;SDS011;27576;53.366;-1.498;2022-12-18T02:00:21;19.73;;;13.83;;
41897;SDS011;27576;53.366;-1.498;2022-12-18T02:02:48;18.37;;;13.27;;
41897;SDS011;27576;53.366;-1.498;2022-12-18T02:05:15;17.03;;;12.90;;
41897;SDS011;27576;53.366;-1.498;2022-12-18T02:10:30;19.80;;;14.17;;
41897;SDS011;27576;53.366;-1.498;2022-12-18T02:19:06;15.93;;;12.20;;
41897;SDS011;27576;53.366;-1.498;2022-12-18T02:22:04;16.80;;;12.83;;
41897;SDS011;27576;53.366;-1.498;2022-12-18T02:27:26;21.73;;;14.17;;
41897;SDS011;27576;53.366;-1.498;2022-12-18T02:29:55;20.87;;;13.40;;
41897;SDS011;27576;53.366;-1.498;2022-12-18T02:32:28;21.93;;;13.73;;
41897;SDS011;27576;53.366;-1.498;2022-12-18T02:34:59;22.50;;;14.70;;
41897;SDS011;27576;53.366;-1.498;2022-12-18T02:37:28;22.70;;;15.57;;
41897;SDS011;27576;53.366;-1.498;2022-12-18T02:39:56;21.70;;;15.87;;
41897;SDS011;27576;53.366;-1.498;2022-12-18T02:42:23;19.33;;;14.40;;
41897;SDS011;27576;53.366;-1.498;2022-12-18T02:44:50;24.73;;;15.83;;
41897;SDS011;27576;53.366;-1.498;2022-12-18T02:47:19;25.07;;;16.63;;
41897;SDS011;27576;53.366;-1.498;2022-12-18T02:49:57;23.77;;;15.93;;
41897;SDS011;27576;53.366;-1.498;2022-12-18T02:52:31;21.37;;;15.73;;
41897;SDS011;27576;53.366;-1.498;2022-12-18T02:57:50;22.73;;;16.30;;
41897;SDS011;27576;53.366;-1.498;2022-12-18T03:00:24;19.30;;;14.73;;
41897;SDS011;27576;53.366;-1.498;2022-12-18T03:02:57;20.40;;;14.27;;
41897;SDS011;27576;53.366;-1.498;2022-12-18T03:05:31;20.70;;;14.97;;
41897;SDS011;27576;53.366;-1.498;2022-12-18T03:08:08;22.57;;;16.40;;
41897;SDS011;27576;53.366;-1.498;2022-12-18T03:10:39;21.97;;;16.07;;
41897;SDS011;27576;53.366;-1.498;2022-12-18T03:13:10;24.50;;;18.13;;
41897;SDS011;27576;53.366;-1.498;2022-12-18T03:15:43;22.33;;;16.63;;
41897;SDS011;27576;53.366;-1.498;2022-12-18T03:18:17;26.83;;;19.27;;
41897;SDS011;27576;53.366;-1.498;2022-12-18T03:20:51;27.57;;;20.03;;
41897;SDS011;27576;53.366;-1.498;2022-12-18T03:23:23;31.33;;;21.00;;
41897;SDS011;27576;53.366;-1.498;2022-12-18T03:25:55;30.43;;;21.50;;
41897;SDS011;27576;53.366;-1.498;2022-12-18T03:28:23;33.77;;;23.43;;
41897;SDS011;27576;53.366;-1.498;2022-12-18T03:30:54;33.80;;;22.80;;
41897;SDS011;27576;53.366;-1.498;2022-12-18T03:35:52;34.13;;;24.03;;
41897;SDS011;27576;53.366;-1.498;2022-12-18T03:38:18;35.93;;;24.83;;
41897;SDS011;27576;53.366;-1.498;2022-12-18T03:46:26;31.50;;;22.20;;
41897;SDS011;27576;53.366;-1.498;2022-12-18T03:49:13;30.53;;;21.97;;
41897;SDS011;27576;53.366;-1.498;2022-12-18T03:52:40;30.03;;;21.20;;
41897;SDS011;27576;53.366;-1.498;2022-12-18T03:54:53;34.03;;;23.13;;
41897;SDS011;27576;53.366;-1.498;2022-12-18T03:57:22;35.27;;;24.13;;
41897;SDS011;27576;53.366;-1.498;2022-12-18T03:59:51;36.93;;;25.53;;
41897;SDS011;27576;53.366;-1.498;2022-12-18T04:02:21;34.63;;;24.10;;
41897;SDS011;27576;53.366;-1.498;2022-12-18T04:04:48;33.67;;;22.97;;
41897;SDS011;27576;53.366;-1.498;2022-12-18T04:07:18;40.57;;;25.30;;
41897;SDS011;27576;53.366;-1.498;2022-12-18T04:09:45;36.53;;;24.73;;
41897;SDS011;27576;53.366;-1.498;2022-12-18T04:12:11;32.87;;;23.60;;
41897;SDS011;27576;53.366;-1.498;2022-12-18T04:14:36;41.27;;;25.67;;
41897;SDS011;27576;53.366;-1.498;2022-12-18T04:17:02;36.77;;;25.43;;
41897;SDS011;27576;53.366;-1.498;2022-12-18T04:19:28;32.80;;;22.67;;
41897;SDS011;27576;53.366;-1.498;2022-12-18T04:21:53;32.90;;;22.93;;
41897;SDS011;27576;53.366;-1.498;2022-12-18T04:24:18;37.57;;;25.13;;
41897;SDS011;27576;53.366;-1.498;2022-12-18T04:26:44;36.40;;;25.17;;
41897;SDS011;27576;53.366;-1.498;2022-12-18T04:29:09;34.57;;;23.23;;
41897;SDS011;27576;53.366;-1.498;2022-12-18T04:31:35;34.47;;;23.00;;
41897;SDS011;27576;53.366;-1.498;2022-12-18T04:34:00;36.90;;;24.50;;
41897;SDS011;27576;53.366;-1.498;2022-12-18T04:36:26;35.53;;;25.10;;
41897;SDS011;27576;53.366;-1.498;2022-12-18T04:38:51;34.37;;;25.27;;
41897;SDS011;27576;53.366;-1.498;2022-12-18T04:41:16;39.87;;;27.47;;
41897;SDS011;27576;53.366;-1.498;2022-12-18T04:43:42;42.03;;;26.07;;
41897;SDS011;27576;53.366;-1.498;2022-12-18T04:46:07;39.87;;;25.63;;
41897;SDS011;27576;53.366;-1.498;2022-12-18T04:48:33;41.10;;;26.50;;
41897;SDS011;27576;53.366;-1.498;2022-12-18T04:51:01;39.37;;;25.67;;
41897;SDS011;27576;53.366;-1.498;2022-12-18T04:53:27;38.63;;;24.73;;
41897;SDS011;27576;53.366;-1.498;2022-12-18T04:56:06;41.90;;;26.17;;
41897;SDS011;27576;53.366;-1.498;2022-12-18T04:58:33;38.93;;;25.33;;
41897;SDS011;27576;53.366;-1.498;2022-12-18T05:00:59;42.10;;;27.00;;
41897;SDS011;27576;53.366;-1.498;2022-12-18T05:03:25;40.03;;;26.37;;
41897;SDS011;27576;53.366;-1.498;2022-12-18T05:05:51;44.03;;;26.00;;
41897;SDS011;27576;53.366;-1.498;2022-12-18T05:08:17;46.93;;;27.07;;
41897;SDS011;27576;53.366;-1.498;2022-12-18T05:10:43;44.47;;;26.03;;
41897;SDS011;27576;53.366;-1.498;2022-12-18T05:13:08;48.67;;;28.20;;
41897;SDS011;27576;53.366;-1.498;2022-12-18T05:15:34;50.00;;;28.07;;
41897;SDS011;27576;53.366;-1.498;2022-12-18T05:17:59;59.90;;;31.63;;
41897;SDS011;27576;53.366;-1.498;2022-12-18T05:20:25;48.70;;;29.80;;
41897;SDS011;27576;53.366;-1.498;2022-12-18T05:22:51;50.70;;;28.53;;
41897;SDS011;27576;53.366;-1.498;2022-12-18T05:25:17;49.33;;;28.00;;
41897;SDS011;27576;53.366;-1.498;2022-12-18T05:27:43;45.00;;;25.20;;
41897;SDS011;27576;53.366;-1.498;2022-12-18T05:30:10;45.37;;;26.13;;
41897;SDS011;27576;53.366;-1.498;2022-12-18T05:32:36;46.60;;;28.10;;
41897;SDS011;27576;53.366;-1.498;2022-12-18T05:35:02;55.57;;;33.40;;
41897;SDS011;27576;53.366;-1.498;2022-12-18T05:37:27;56.63;;;31.17;;
41897;SDS011;27576;53.366;-1.498;2022-12-18T05:39:53;54.93;;;30.57;;
41897;SDS011;27576;53.366;-1.498;2022-12-18T05:42:18;58.87;;;33.67;;
41897;SDS011;27576;53.366;-1.498;2022-12-18T05:44:43;66.97;;;34.83;;
41897;SDS011;27576;53.366;-1.498;2022-12-18T05:47:09;66.30;;;35.37;;
41897;SDS011;27576;53.366;-1.498;2022-12-18T05:49:34;70.93;;;36.63;;
41897;SDS011;27576;53.366;-1.498;2022-12-18T05:52:00;75.40;;;38.53;;
41897;SDS011;27576;53.366;-1.498;2022-12-18T05:54:28;76.17;;;38.33;;
41897;SDS011;27576;53.366;-1.498;2022-12-18T05:56:54;76.17;;;39.10;;
41897;SDS011;27576;53.366;-1.498;2022-12-18T05:59:19;81.50;;;41.87;;
41897;SDS011;27576;53.366;-1.498;2022-12-18T06:01:45;80.83;;;40.13;;
41897;SDS011;27576;53.366;-1.498;2022-12-18T06:04:11;73.20;;;37.27;;
41897;SDS011;27576;53.366;-1.498;2022-12-18T06:06:36;80.00;;;37.37;;
41897;SDS011;27576;53.366;-1.498;2022-12-18T06:09:02;78.37;;;39.37;;
41897;SDS011;27576;53.366;-1.498;2022-12-18T06:11:33;87.33;;;42.00;;
41897;SDS011;27576;53.366;-1.498;2022-12-18T06:14:03;92.20;;;44.20;;
41897;SDS011;27576;53.366;-1.498;2022-12-18T06:16:30;84.73;;;41.40;;
41897;SDS011;27576;53.366;-1.498;2022-12-18T06:18:57;91.03;;;42.50;;
41897;SDS011;27576;53.366;-1.498;2022-12-18T06:21:23;81.80;;;40.87;;
41897;SDS011;27576;53.366;-1.498;2022-12-18T06:23:48;92.97;;;45.40;;
41897;SDS011;27576;53.366;-1.498;2022-12-18T06:26:15;87.20;;;42.40;;
41897;SDS011;27576;53.366;-1.498;2022-12-18T06:28:40;92.67;;;43.90;;
41897;SDS011;27576;53.366;-1.498;2022-12-18T06:31:06;91.70;;;45.17;;
41897;SDS011;27576;53.366;-1.498;2022-12-18T06:33:32;105.67;;;49.97;;
41897;SDS011;27576;53.366;-1.498;2022-12-18T06:36:08;91.83;;;44.53;;
41897;SDS011;27576;53.366;-1.498;2022-12-18T06:38:36;101.37;;;47.10;;
41897;SDS011;27576;53.366;-1.498;2022-12-18T06:41:10;87.93;;;42.93;;
41897;SDS011;27576;53.366;-1.498;2022-12-18T06:43:37;102.37;;;50.17;;
41897;SDS011;27576;53.366;-1.498;2022-12-18T06:46:03;88.63;;;44.07;;
41897;SDS011;27576;53.366;-1.498;2022-12-18T06:48:29;101.47;;;47.67;;
41897;SDS011;27576;53.366;-1.498;2022-12-18T06:50:55;89.43;;;45.73;;
41897;SDS011;27576;53.366;-1.498;2022-12-18T06:53:20;86.73;;;44.57;;
41897;SDS011;27576;53.366;-1.498;2022-12-18T06:55:46;95.90;;;45.17;;
41897;SDS011;27576;53.366;-1.498;2022-12-18T06:58:11;97.53;;;46.50;;
41897;SDS011;27576;53.366;-1.498;2022-12-18T07:00:36;95.60;;;49.33;;
41897;SDS011;27576;53.366;-1.498;2022-12-18T07:03:02;98.73;;;49.23;;
41897;SDS011;27576;53.366;-1.498;2022-12-18T07:05:27;86.63;;;45.00;;
41897;SDS011;27576;53.366;-1.498;2022-12-18T07:07:52;96.77;;;47.20;;
41897;SDS011;27576;53.366;-1.498;2022-12-18T07:10:18;92.97;;;47.07;;
41897;SDS011;27576;53.366;-1.498;2022-12-18T07:12:43;85.03;;;43.47;;
41897;SDS011;27576;53.366;-1.498;2022-12-18T07:15:09;88.43;;;47.07;;
41897;SDS011;27576;53.366;-1.498;2022-12-18T07:17:34;97.13;;;49.47;;
41897;SDS011;27576;53.366;-1.498;2022-12-18T07:20:00;112.53;;;54.53;;
41897;SDS011;27576;53.366;-1.498;2022-12-18T07:22:26;93.43;;;48.17;;
41897;SDS011;27576;53.366;-1.498;2022-12-18T07:24:51;101.27;;;48.67;;
41897;SDS011;27576;53.366;-1.498;2022-12-18T07:27:17;105.43;;;50.03;;
41897;SDS011;27576;53.366;-1.498;2022-12-18T07:29:42;99.40;;;49.97;;
41897;SDS011;27576;53.366;-1.498;2022-12-18T07:32:07;103.23;;;51.70;;
41897;SDS011;27576;53.366;-1.498;2022-12-18T07:34:33;116.87;;;54.83;;
41897;SDS011;27576;53.366;-1.498;2022-12-18T07:36:58;96.53;;;50.33;;
41897;SDS011;27576;53.366;-1.498;2022-12-18T07:39:24;121.80;;;56.03;;
41897;SDS011;27576;53.366;-1.498;2022-12-18T07:41:49;101.63;;;51.03;;
41897;SDS011;27576;53.366;-1.498;2022-12-18T07:44:34;105.97;;;50.70;;
41897;SDS011;27576;53.366;-1.498;2022-12-18T07:47:00;107.23;;;51.63;;
41897;SDS011;27576;53.366;-1.498;2022-12-18T07:49:26;100.93;;;50.37;;
41897;SDS011;27576;53.366;-1.498;2022-12-18T07:51:53;116.37;;;52.57;;
41897;SDS011;27576;53.366;-1.498;2022-12-18T07:54:21;102.77;;;49.60;;
41897;SDS011;27576;53.366;-1.498;2022-12-18T07:56:46;106.20;;;48.23;;
41897;SDS011;27576;53.366;-1.498;2022-12-18T07:59:12;95.60;;;46.33;;
41897;SDS011;27576;53.366;-1.498;2022-12-18T08:01:37;107.77;;;49.43;;
41897;SDS011;27576;53.366;-1.498;2022-12-18T08:04:03;100.27;;;45.47;;
41897;SDS011;27576;53.366;-1.498;2022-12-18T08:06:28;97.20;;;46.83;;
41897;SDS011;27576;53.366;-1.498;2022-12-18T08:08:54;98.57;;;46.00;;
41897;SDS011;27576;53.366;-1.498;2022-12-18T08:11:21;93.70;;;44.30;;
41897;SDS011;27576;53.366;-1.498;2022-12-18T08:13:47;105.97;;;48.70;;
41897;SDS011;27576;53.366;-1.498;2022-12-18T08:16:13;94.40;;;47.20;;
41897;SDS011;27576;53.366;-1.498;2022-12-18T08:18:38;99.33;;;45.57;;
41897;SDS011;27576;53.366;-1.498;2022-12-18T08:21:09;110.23;;;49.10;;
41897;SDS011;27576;53.366;-1.498;2022-12-18T08:23:36;99.30;;;45.50;;
41897;SDS011;27576;53.366;-1.498;2022-12-18T08:26:01;96.30;;;44.40;;
41897;SDS011;27576;53.366;-1.498;2022-12-18T08:28:27;93.23;;;44.70;;
41897;SDS011;27576;53.366;-1.498;2022-12-18T08:30:52;92.23;;;44.07;;
41897;SDS011;27576;53.366;-1.498;2022-12-18T08:33:18;89.37;;;44.13;;
41897;SDS011;27576;53.366;-1.498;2022-12-18T08:35:43;103.77;;;46.73;;
41897;SDS011;27576;53.366;-1.498;2022-12-18T08:38:08;93.57;;;44.47;;
41897;SDS011;27576;53.366;-1.498;2022-12-18T08:40:34;90.63;;;41.17;;
41897;SDS011;27576;53.366;-1.498;2022-12-18T08:42:59;91.83;;;43.07;;
41897;SDS011;27576;53.366;-1.498;2022-12-18T08:45:43;101.47;;;45.70;;
41897;SDS011;27576;53.366;-1.498;2022-12-18T08:48:09;87.63;;;41.30;;
41897;SDS011;27576;53.366;-1.498;2022-12-18T08:50:34;92.37;;;43.87;;
41897;SDS011;27576;53.366;-1.498;2022-12-18T08:53:00;97.30;;;42.87;;
41897;SDS011;27576;53.366;-1.498;2022-12-18T08:55:26;93.03;;;41.27;;
41897;SDS011;27576;53.366;-1.498;2022-12-18T08:57:51;97.90;;;43.30;;
41897;SDS011;27576;53.366;-1.498;2022-12-18T09:00:16;88.73;;;42.70;;
41897;SDS011;27576;53.366;-1.498;2022-12-18T09:02:42;85.90;;;40.50;;
41897;SDS011;27576;53.366;-1.498;2022-12-18T09:05:07;81.30;;;38.93;;
41897;SDS011;27576;53.366;-1.498;2022-12-18T09:07:33;81.27;;;37.93;;
41897;SDS011;27576;53.366;-1.498;2022-12-18T09:09:59;87.20;;;39.00;;
41897;SDS011;27576;53.366;-1.498;2022-12-18T09:12:24;89.67;;;41.97;;
41897;SDS011;27576;53.366;-1.498;2022-12-18T09:14:50;86.73;;;40.13;;
41897;SDS011;27576;53.366;-1.498;2022-12-18T09:17:15;93.73;;;43.90;;
41897;SDS011;27576;53.366;-1.498;2022-12-18T09:19:41;92.00;;;43.30;;
41897;SDS011;27576;53.366;-1.498;2022-12-18T09:22:06;88.67;;;40.27;;
41897;SDS011;27576;53.366;-1.498;2022-12-18T09:24:32;91.10;;;43.00;;
41897;SDS011;27576;53.366;-1.498;2022-12-18T09:26:57;83.20;;;39.37;;
41897;SDS011;27576;53.366;-1.498;2022-12-18T09:29:23;84.20;;;38.47;;
41897;SDS011;27576;53.366;-1.498;2022-12-18T09:31:49;81.67;;;40.23;;
41897;SDS011;27576;53.366;-1.498;2022-12-18T09:34:14;83.57;;;39.60;;
41897;SDS011;27576;53.366;-1.498;2022-12-18T09:36:40;83.60;;;40.37;;
41897;SDS011;27576;53.366;-1.498;2022-12-18T09:39:06;90.27;;;40.73;;
41897;SDS011;27576;53.366;-1.498;2022-12-18T09:41:50;84.80;;;40.27;;
41897;SDS011;27576;53.366;-1.498;2022-12-18T09:47:05;78.87;;;38.07;;
41897;SDS011;27576;53.366;-1.498;2022-12-18T09:49:47;78.83;;;38.97;;
41897;SDS011;27576;53.366;-1.498;2022-12-18T09:55:30;76.90;;;36.33;;
41897;SDS011;27576;53.366;-1.498;2022-12-18T09:57:35;78.40;;;36.37;;
41897;SDS011;27576;53.366;-1.498;2022-12-18T10:00:10;77.57;;;37.50;;
41897;SDS011;27576;53.366;-1.498;2022-12-18T10:02:40;80.03;;;37.53;;
41897;SDS011;27576;53.366;-1.498;2022-12-18T10:11:16;70.87;;;34.67;;
41897;SDS011;27576;53.366;-1.498;2022-12-18T10:19:52;70.90;;;32.73;;
41897;SDS011;27576;53.366;-1.498;2022-12-18T10:27:56;66.37;;;31.93;;
41897;SDS011;27576;53.366;-1.498;2022-12-18T10:30:25;71.93;;;34.30;;
41897;SDS011;27576;53.366;-1.498;2022-12-18T10:32:51;61.63;;;31.13;;
41897;SDS011;27576;53.366;-1.498;2022-12-18T10:35:21;80.40;;;36.53;;
41897;SDS011;27576;53.366;-1.498;2022-12-18T10:38:02;65.13;;;33.00;;
41897;SDS011;27576;53.366;-1.498;2022-12-18T10:40:50;65.10;;;33.63;;
41897;SDS011;27576;53.366;-1.498;2022-12-18T10:43:19;62.40;;;31.37;;
41897;SDS011;27576;53.366;-1.498;2022-12-18T10:51:19;61.63;;;30.53;;
41897;SDS011;27576;53.366;-1.498;2022-12-18T10:53:57;58.80;;;29.97;;
41897;SDS011;27576;53.366;-1.498;2022-12-18T10:56:26;55.90;;;28.97;;
41897;SDS011;27576;53.366;-1.498;2022-12-18T10:58:57;59.20;;;30.70;;
41897;SDS011;27576;53.366;-1.498;2022-12-18T11:01:27;66.33;;;30.60;;
41897;SDS011;27576;53.366;-1.498;2022-12-18T11:04:00;55.30;;;28.50;;
41897;SDS011;27576;53.366;-1.498;2022-12-18T11:06:32;59.37;;;29.60;;
41897;SDS011;27576;53.366;-1.498;2022-12-18T11:11:25;64.10;;;32.83;;
41897;SDS011;27576;53.366;-1.498;2022-12-18T11:16:52;58.70;;;30.40;;
41897;SDS011;27576;53.366;-1.498;2022-12-18T11:25:06;55.83;;;28.87;;
41897;SDS011;27576;53.366;-1.498;2022-12-18T11:28:03;50.83;;;28.27;;
41897;SDS011;27576;53.366;-1.498;2022-12-18T11:30:31;52.00;;;27.60;;
41897;SDS011;27576;53.366;-1.498;2022-12-18T11:35:41;60.67;;;29.60;;
41897;SDS011;27576;53.366;-1.498;2022-12-18T11:38:15;60.77;;;31.90;;
41897;SDS011;27576;53.366;-1.498;2022-12-18T11:40:47;58.00;;;30.13;;
41897;SDS011;27576;53.366;-1.498;2022-12-18T11:43:28;56.30;;;28.93;;
41897;SDS011;27576;53.366;-1.498;2022-12-18T11:46:02;59.13;;;31.13;;
41897;SDS011;27576;53.366;-1.498;2022-12-18T11:48:54;56.87;;;29.70;;
41897;SDS011;27576;53.366;-1.498;2022-12-18T11:54:37;53.53;;;30.20;;
41897;SDS011;27576;53.366;-1.498;2022-12-18T11:59:50;63.33;;;31.27;;
41897;SDS011;27576;53.366;-1.498;2022-12-18T12:13:10;56.70;;;30.13;;
41897;SDS011;27576;53.366;-1.498;2022-12-18T12:26:19;68.43;;;34.37;;
41897;SDS011;27576;53.366;-1.498;2022-12-18T12:29:03;57.37;;;29.73;;
41897;SDS011;27576;53.366;-1.498;2022-12-18T12:37:13;61.63;;;32.87;;
41897;SDS011;27576;53.366;-1.498;2022-12-18T12:39:58;55.33;;;30.53;;
41897;SDS011;27576;53.366;-1.498;2022-12-18T12:42:29;60.37;;;33.07;;
41897;SDS011;27576;53.366;-1.498;2022-12-18T12:45:21;57.13;;;30.30;;
41897;SDS011;27576;53.366;-1.498;2022-12-18T12:47:53;59.87;;;31.50;;
41897;SDS011;27576;53.366;-1.498;2022-12-18T12:50:20;56.63;;;28.73;;
41897;SDS011;27576;53.366;-1.498;2022-12-18T12:52:47;54.67;;;29.50;;
41897;SDS011;27576;53.366;-1.498;2022-12-18T12:55:19;69.80;;;35.07;;
41897;SDS011;27576;53.366;-1.498;2022-12-18T13:00:44;73.60;;;37.60;;
41897;SDS011;27576;53.366;-1.498;2022-12-18T13:09:21;65.80;;;34.53;;
41897;SDS011;27576;53.366;-1.498;2022-12-18T13:11:47;60.63;;;33.63;;
41897;SDS011;27576;53.366;-1.498;2022-12-18T13:14:38;59.30;;;32.67;;
41897;SDS011;27576;53.366;-1.498;2022-12-18T13:19:49;70.07;;;37.43;;
41897;SDS011;27576;53.366;-1.498;2022-12-18T13:22:40;68.63;;;37.60;;
41897;SDS011;27576;53.366;-1.498;2022-12-18T13:25:27;76.27;;;39.93;;
41897;SDS011;27576;53.366;-1.498;2022-12-18T13:28:05;63.43;;;35.10;;
41897;SDS011;27576;53.366;-1.498;2022-12-18T13:30:49;79.50;;;42.93;;
41897;SDS011;27576;53.366;-1.498;2022-12-18T13:33:34;73.53;;;36.83;;
41897;SDS011;27576;53.366;-1.498;2022-12-18T13:38:47;68.23;;;38.37;;
41897;SDS011;27576;53.366;-1.498;2022-12-18T13:41:32;61.50;;;33.27;;
41897;SDS011;27576;53.366;-1.498;2022-12-18T13:44:11;59.40;;;33.77;;
41897;SDS011;27576;53.366;-1.498;2022-12-18T13:46:56;60.73;;;34.37;;
41897;SDS011;27576;53.366;-1.498;2022-12-18T13:49:28;68.37;;;34.77;;
41897;SDS011;27576;53.366;-1.498;2022-12-18T13:52:18;77.43;;;39.50;;
41897;SDS011;27576;53.366;-1.498;2022-12-18T13:54:52;58.67;;;33.97;;
41897;SDS011;27576;53.366;-1.498;2022-12-18T13:57:36;68.00;;;35.13;;
41897;SDS011;27576;53.366;-1.498;2022-12-18T14:02:44;69.33;;;37.50;;
41897;SDS011;27576;53.366;-1.498;2022-12-18T14:07:58;74.33;;;37.60;;
41897;SDS011;27576;53.366;-1.498;2022-12-18T14:10:26;80.00;;;40.90;;
41897;SDS011;27576;53.366;-1.498;2022-12-18T14:12:52;80.80;;;40.50;;
41897;SDS011;27576;53.366;-1.498;2022-12-18T14:17:50;86.47;;;40.90;;
41897;SDS011;27576;53.366;-1.498;2022-12-18T14:20:18;71.63;;;36.70;;
41897;SDS011;27576;53.366;-1.498;2022-12-18T14:22:44;75.33;;;38.00;;
41897;SDS011;27576;53.366;-1.498;2022-12-18T14:27:37;75.27;;;38.97;;
41897;SDS011;27576;53.366;-1.498;2022-12-18T14:33:04;71.43;;;35.77;;
41897;SDS011;27576;53.366;-1.498;2022-12-18T14:35:35;81.07;;;40.03;;
41897;SDS011;27576;53.366;-1.498;2022-12-18T14:38:20;86.93;;;40.37;;
41897;SDS011;27576;53.366;-1.498;2022-12-18T14:40:52;86.67;;;40.37;;
41897;SDS011;27576;53.366;-1.498;2022-12-18T14:43:22;72.83;;;36.87;;
41897;SDS011;27576;53.366;-1.498;2022-12-18T14:45:48;76.73;;;36.80;;
41897;SDS011;27576;53.366;-1.498;2022-12-18T14:48:19;79.67;;;37.47;;
41897;SDS011;27576;53.366;-1.498;2022-12-18T14:53:33;69.03;;;35.00;;
41897;SDS011;27576;53.366;-1.498;2022-12-18T14:56:10;78.53;;;38.90;;
41897;SDS011;27576;53.366;-1.498;2022-12-18T14:59:03;79.00;;;37.77;;
41897;SDS011;27576;53.366;-1.498;2022-12-18T15:01:37;67.63;;;36.13;;
41897;SDS011;27576;53.366;-1.498;2022-12-18T15:04:29;65.47;;;34.80;;
41897;SDS011;27576;53.366;-1.498;2022-12-18T15:09:36;77.67;;;36.20;;
41897;SDS011;27576;53.366;-1.498;2022-12-18T15:12:02;88.03;;;41.37;;
41897;SDS011;27576;53.366;-1.498;2022-12-18T15:17:06;81.60;;;40.83;;
41897;SDS011;27576;53.366;-1.498;2022-12-18T15:19:42;87.57;;;40.67;;
41897;SDS011;27576;53.366;-1.498;2022-12-18T15:22:28;75.97;;;37.43;;
41897;SDS011;27576;53.366;-1.498;2022-12-18T15:24:57;85.57;;;42.50;;
41897;SDS011;27576;53.366;-1.498;2022-12-18T15:30:02;85.97;;;42.60;;
41897;SDS011;27576;53.366;-1.498;2022-12-18T15:32:28;75.67;;;38.87;;
41897;SDS011;27576;53.366;-1.498;2022-12-18T15:37:49;70.70;;;37.87;;
41897;SDS011;27576;53.366;-1.498;2022-12-18T15:40:20;73.93;;;39.67;;
41897;SDS011;27576;53.366;-1.498;2022-12-18T15:42:48;77.23;;;38.70;;
41897;SDS011;27576;53.366;-1.498;2022-12-18T15:45:34;81.77;;;41.53;;
41897;SDS011;27576;53.366;-1.498;2022-12-18T15:48:42;86.77;;;40.97;;
41897;SDS011;27576;53.366;-1.498;2022-12-18T15:50:49;82.07;;;40.30;;
41897;SDS011;27576;53.366;-1.498;2022-12-18T15:53:17;78.33;;;38.27;;
41897;SDS011;27576;53.366;-1.498;2022-12-18T15:55:43;72.13;;;37.97;;
41897;SDS011;27576;53.366;-1.498;2022-12-18T15:58:26;80.27;;;42.03;;
41897;SDS011;27576;53.366;-1.498;2022-12-18T16:00:58;84.10;;;42.13;;
41897;SDS011;27576;53.366;-1.498;2022-12-18T16:03:25;88.63;;;44.37;;
41897;SDS011;27576;53.366;-1.498;2022-12-18T16:05:50;79.27;;;41.00;;
41897;SDS011;27576;53.366;-1.498;2022-12-18T16:08:16;78.27;;;39.67;;
41897;SDS011;27576;53.366;-1.498;2022-12-18T16:10:41;77.03;;;39.57;;
41897;SDS011;27576;53.366;-1.498;2022-12-18T16:13:10;80.53;;;42.03;;
41897;SDS011;27576;53.366;-1.498;2022-12-18T16:15:37;68.60;;;37.73;;
41897;SDS011;27576;53.366;-1.498;2022-12-18T16:18:02;71.27;;;39.00;;
41897;SDS011;27576;53.366;-1.498;2022-12-18T16:20:28;73.37;;;38.87;;
41897;SDS011;27576;53.366;-1.498;2022-12-18T16:22:53;70.87;;;39.47;;
41897;SDS011;27576;53.366;-1.498;2022-12-18T16:25:19;74.63;;;38.13;;
41897;SDS011;27576;53.366;-1.498;2022-12-18T16:27:47;69.50;;;37.33;;
41897;SDS011;27576;53.366;-1.498;2022-12-18T16:30:17;76.23;;;39.80;;
41897;SDS011;27576;53.366;-1.498;2022-12-18T16:32:44;76.63;;;40.40;;
41897;SDS011;27576;53.366;-1.498;2022-12-18T16:35:13;72.50;;;37.33;;
41897;SDS011;27576;53.366;-1.498;2022-12-18T16:37:40;72.03;;;39.23;;
41897;SDS011;27576;53.366;-1.498;2022-12-18T16:40:06;71.90;;;40.70;;
41897;SDS011;27576;53.366;-1.498;2022-12-18T16:42:34;65.63;;;36.20;;
41897;SDS011;27576;53.366;-1.498;2022-12-18T16:45:07;59.53;;;33.87;;
41897;SDS011;27576;53.366;-1.498;2022-12-18T16:47:33;58.43;;;33.97;;